createdAt,value
2023-01-23T00:02:51.561Z,14.32
2023-01-23T00:07:53.776Z,14.12
2023-01-23T00:12:58.025Z,13.93
2023-01-23T00:18:00.218Z,13.76
2023-01-23T00:23:02.354Z,14.04
2023-01-23T00:28:04.875Z,13.92
2023-01-23T00:33:07.098Z,14.07
2023-01-23T00:38:09.423Z,13.77
2023-01-23T00:43:11.778Z,13.78
2023-01-23T00:48:13.996Z,13.61
2023-01-23T00:53:16.563Z,14.39
2023-01-23T00:58:18.961Z,14.01
2023-01-23T01:03:21.278Z,14.19
2023-01-23T01:08:23.609Z,14.36
2023-01-23T01:13:26.459Z,14.23
2023-01-23T01:18:29.318Z,14.57
2023-01-23T01:23:31.558Z,14.42
2023-01-23T01:28:35.573Z,14.23
2023-01-23T01:33:39.295Z,14.47
2023-01-23T01:38:41.901Z,14.56
2023-01-23T01:43:44.939Z,13.90
2023-01-23T01:49:07.130Z,14.60
2023-01-23T01:54:11.786Z,14.63
2023-01-23T01:59:14.666Z,14.53
2023-01-23T02:04:16.834Z,14.57
2023-01-23T02:09:26.274Z,14.44
2023-01-23T02:14:28.585Z,14.51
2023-01-23T02:19:55.793Z,14.66
2023-01-23T02:25:17.483Z,14.44
2023-01-23T02:30:21.927Z,14.65
2023-01-23T02:35:29.634Z,14.61
2023-01-23T02:40:39.979Z,14.15
2023-01-23T02:45:42.571Z,14.47
2023-01-23T02:50:46.772Z,14.56
2023-01-23T02:55:49.226Z,14.22
2023-01-23T03:00:51.647Z,14.38
2023-01-23T03:05:55.934Z,14.25
2023-01-23T03:10:58.207Z,14.29
2023-01-23T03:16:00.498Z,14.14
2023-01-23T03:21:06.936Z,14.45
2023-01-23T03:26:09.087Z,14.34
2023-01-23T03:31:13.154Z,14.31
2023-01-23T03:36:15.408Z,14.57
2023-01-23T03:41:26.622Z,14.28
2023-01-23T03:46:28.837Z,14.40
2023-01-23T03:51:31.068Z,14.32
2023-01-23T03:56:33.429Z,14.35
2023-01-23T04:01:35.827Z,14.51
2023-01-23T04:06:38.000Z,14.29
2023-01-23T04:11:40.325Z,14.17
2023-01-23T04:16:42.483Z,14.21
2023-01-23T04:21:44.646Z,14.05
2023-01-23T04:26:46.830Z,14.27
2023-01-23T04:31:49.116Z,14.14
2023-01-23T04:36:51.403Z,13.71
2023-01-23T04:41:53.476Z,13.85
2023-01-23T04:46:55.654Z,14.11
2023-01-23T04:51:57.937Z,13.99
2023-01-23T04:57:00.211Z,13.69
2023-01-23T05:02:02.794Z,14.23
2023-01-23T05:07:05.063Z,13.96
2023-01-23T05:12:07.851Z,13.59
2023-01-23T05:17:10.180Z,13.79
2023-01-23T05:22:12.391Z,13.40
2023-01-23T05:27:14.999Z,13.22
2023-01-23T05:32:17.277Z,13.55
2023-01-23T05:37:20.759Z,13.50
2023-01-23T05:42:23.129Z,13.92
2023-01-23T05:47:25.421Z,13.56
2023-01-23T05:52:28.257Z,13.50
2023-01-23T05:57:30.372Z,13.65
2023-01-23T06:02:32.628Z,13.59
2023-01-23T06:07:34.824Z,13.25
2023-01-23T06:12:37.011Z,13.32
2023-01-23T06:17:39.179Z,13.90
2023-01-23T06:22:41.417Z,13.38
2023-01-23T06:27:43.709Z,13.32
2023-01-23T06:32:45.869Z,13.51
2023-01-23T06:37:48.374Z,13.61
2023-01-23T06:42:51.491Z,13.76
2023-01-23T06:47:53.922Z,13.80
2023-01-23T06:52:56.113Z,13.97
2023-01-23T06:57:58.281Z,14.06
2023-01-23T07:03:03.986Z,14.23
2023-01-23T07:08:07.375Z,14.44
2023-01-23T07:13:11.343Z,14.47
2023-01-23T07:18:13.671Z,14.26
2023-01-23T07:23:16.022Z,14.12
2023-01-23T07:28:18.242Z,14.05
2023-01-23T07:33:20.461Z,13.97
2023-01-23T07:38:26.256Z,14.25
2023-01-23T07:43:28.440Z,14.70
2023-01-23T07:48:30.807Z,14.65
2023-01-23T07:53:33.540Z,14.52
2023-01-23T07:58:35.749Z,15.18
2023-01-23T08:03:38.015Z,15.25
2023-01-23T08:08:40.655Z,15.66
2023-01-23T08:13:42.946Z,15.65
2023-01-23T08:18:45.288Z,16.47
2023-01-23T08:23:47.613Z,16.62
2023-01-23T08:28:49.881Z,16.14
2023-01-23T08:33:52.070Z,16.24
2023-01-23T08:38:54.277Z,15.99
2023-01-23T08:43:58.630Z,16.49
2023-01-23T08:49:00.774Z,16.71
2023-01-23T08:54:03.312Z,17.14
2023-01-23T08:59:05.631Z,16.78
2023-01-23T09:04:07.933Z,16.87
2023-01-23T09:09:10.127Z,16.97
2023-01-23T09:14:12.363Z,16.03
2023-01-23T09:19:17.308Z,16.45
2023-01-23T09:24:25.457Z,15.75
2023-01-23T09:29:27.669Z,15.99
2023-01-23T09:34:30.471Z,15.68
2023-01-23T09:39:32.662Z,16.16
2023-01-23T09:44:37.931Z,16.59
2023-01-23T09:49:42.525Z,16.78
2023-01-23T09:55:02.982Z,16.52
2023-01-23T10:00:34.763Z,16.77
2023-01-23T10:05:44.828Z,16.12
2023-01-23T10:10:54.397Z,15.85
2023-01-23T10:16:49.979Z,16.72
2023-01-23T10:22:39.251Z,16.81
2023-01-23T10:28:49.082Z,15.94
2023-01-23T10:34:19.253Z,16.43
2023-01-23T10:39:39.055Z,16.12
2023-01-23T10:44:41.334Z,16.50
2023-01-23T10:49:46.795Z,16.45
2023-01-23T10:54:49.004Z,16.44
2023-01-23T11:00:08.188Z,16.68
2023-01-23T11:05:52.954Z,16.86
2023-01-23T11:11:17.082Z,16.64
2023-01-23T11:16:22.770Z,16.42
2023-01-23T11:21:30.636Z,15.72
2023-01-23T11:26:34.565Z,16.74
2023-01-23T11:31:37.580Z,16.59
2023-01-23T11:37:16.042Z,16.14
2023-01-23T11:42:20.414Z,16.56
2023-01-23T11:47:48.263Z,16.85
2023-01-23T11:53:06.694Z,17.16
2023-01-23T11:58:18.157Z,17.40
2023-01-23T12:03:40.036Z,17.55
2023-01-23T12:09:17.058Z,17.26
2023-01-23T12:14:46.587Z,17.84
2023-01-23T12:20:01.085Z,17.79
2023-01-23T12:25:22.490Z,17.70
2023-01-23T12:30:47.868Z,17.59
2023-01-23T12:36:18.233Z,17.42
2023-01-23T12:41:28.175Z,17.35
2023-01-23T12:47:07.224Z,17.47
2023-01-23T12:52:21.827Z,17.48
2023-01-23T12:58:07.970Z,17.29
2023-01-23T13:03:47.008Z,17.27
2023-01-23T13:09:19.170Z,17.29
2023-01-23T13:14:29.101Z,17.42
2023-01-23T13:20:00.916Z,17.34
2023-01-23T13:25:13.244Z,17.38
2023-01-23T13:30:24.580Z,17.34
2023-01-23T13:35:45.236Z,17.35
2023-01-23T13:41:10.739Z,17.30
2023-01-23T13:46:38.778Z,16.99
2023-01-23T14:24:27.018Z,16.51
2023-01-23T14:29:29.315Z,16.41
2023-01-23T14:34:40.397Z,16.60
2023-01-23T14:39:53.126Z,16.50
2023-01-23T14:44:59.426Z,16.42
2023-01-23T14:50:03.286Z,16.32
2023-01-23T14:55:29.260Z,16.32
2023-01-23T15:00:34.524Z,16.34
2023-01-23T15:05:39.854Z,15.91
2023-01-23T15:10:46.932Z,16.34
2023-01-23T15:16:04.872Z,16.08
2023-01-23T15:21:09.058Z,16.06
2023-01-23T15:26:13.074Z,16.07
2023-01-23T15:31:41.051Z,16.15
2023-01-23T15:36:50.426Z,16.14
2023-01-23T15:41:56.395Z,15.57
2023-01-23T15:47:03.661Z,16.16
2023-01-23T15:52:25.008Z,16.16
2023-01-23T15:57:27.867Z,16.08
2023-01-23T16:02:32.974Z,16.18
2023-01-23T16:07:41.173Z,15.92
2023-01-23T16:12:44.398Z,15.53
2023-01-23T16:17:46.795Z,15.61
2023-01-23T16:23:11.772Z,16.01
2023-01-23T16:28:19.801Z,16.24
2023-01-23T16:33:22.648Z,15.70
2023-01-23T16:38:29.929Z,15.68
2023-01-23T16:43:32.309Z,15.63
2023-01-23T16:48:34.449Z,15.60
2023-01-23T16:53:40.938Z,15.93
2023-01-23T16:58:43.172Z,15.92
2023-01-23T17:03:45.653Z,15.75
2023-01-23T17:08:51.264Z,15.81
2023-01-23T17:14:02.058Z,15.90
2023-01-23T17:19:33.066Z,15.98
2023-01-23T17:24:35.290Z,15.81
2023-01-23T17:29:37.619Z,16.01
2023-01-23T17:34:48.870Z,15.92
2023-01-23T17:39:52.087Z,15.91
2023-01-23T17:44:54.246Z,15.83
2023-01-23T17:49:57.093Z,15.97
2023-01-23T17:54:59.252Z,15.96
2023-01-23T18:00:01.600Z,15.82
2023-01-23T18:05:05.498Z,15.94
2023-01-23T18:10:12.101Z,15.97
2023-01-23T18:15:16.893Z,15.96
2023-01-23T18:20:21.540Z,15.53
2023-01-23T18:25:26.491Z,15.70
2023-01-23T18:30:51.385Z,15.77
2023-01-23T18:36:19.175Z,15.85
2023-01-23T18:41:25.522Z,15.96
2023-01-23T18:46:28.443Z,15.89
2023-01-23T18:51:46.943Z,15.96
2023-01-23T18:57:27.379Z,15.92
2023-01-23T19:02:45.399Z,15.71
2023-01-23T19:07:49.207Z,15.78
2023-01-23T19:13:16.591Z,16.01
2023-01-23T19:18:40.366Z,15.99
2023-01-23T19:23:45.778Z,15.87
2023-01-23T19:28:48.308Z,15.61
2023-01-23T19:33:50.499Z,15.90
2023-01-23T19:38:53.527Z,15.95
2023-01-23T19:43:57.216Z,15.71
2023-01-23T19:49:01.629Z,15.20
2023-01-23T19:54:09.585Z,15.15
2023-01-23T19:59:11.841Z,15.09
2023-01-23T20:04:22.309Z,15.40
2023-01-23T20:09:24.476Z,15.33
2023-01-23T20:14:27.631Z,15.41
2023-01-23T20:19:29.728Z,15.32
2023-01-23T20:24:31.874Z,14.28
2023-01-23T20:29:34.093Z,13.18
2023-01-23T20:34:36.265Z,12.54
2023-01-23T20:39:38.468Z,12.31
2023-01-23T20:44:42.014Z,12.46
2023-01-23T20:49:44.227Z,13.04
2023-01-23T20:54:47.334Z,13.13
2023-01-23T20:59:49.566Z,13.07
2023-01-23T21:04:56.279Z,13.20
2023-01-23T21:09:58.384Z,13.25
2023-01-23T21:15:01.278Z,13.50
2023-01-23T21:20:03.664Z,13.25
2023-01-23T21:25:06.471Z,13.38
2023-01-23T21:30:09.294Z,13.59
2023-01-23T21:35:12.177Z,13.52
2023-01-23T21:40:14.562Z,13.71
2023-01-23T21:45:16.771Z,13.69
2023-01-23T21:50:18.968Z,13.87
2023-01-23T21:55:21.412Z,14.18
2023-01-23T22:00:41.816Z,13.99
2023-01-23T22:05:44.215Z,13.60
2023-01-23T22:10:46.341Z,13.87
2023-01-23T22:15:48.532Z,14.00
2023-01-23T22:21:03.988Z,14.27
2023-01-23T22:26:09.177Z,14.41
2023-01-23T22:31:16.239Z,14.48
2023-01-23T22:36:20.090Z,14.61
2023-01-23T22:41:23.289Z,14.62
2023-01-23T22:46:25.489Z,14.53
2023-01-23T22:51:28.542Z,14.65
2023-01-23T22:56:32.481Z,14.67
2023-01-23T23:01:35.072Z,14.70
2023-01-23T23:06:37.168Z,14.58
2023-01-23T23:11:40.227Z,14.37
2023-01-23T23:16:42.324Z,14.24
2023-01-23T23:21:44.523Z,14.38
2023-01-23T23:26:46.779Z,14.22
2023-01-23T23:31:51.936Z,14.11
2023-01-23T23:36:54.106Z,14.37
2023-01-23T23:41:56.287Z,14.35
2023-01-23T23:46:58.385Z,14.07
2023-01-23T23:52:00.655Z,13.85
2023-01-23T23:57:02.715Z,14.04
